Riggston, Illinois
Current Conditions -  °F | °C
As of 11:15 AM on Friday 24 Oct 2014 (Local Time) from KIJX Reporting Station
Overcast Overcast  
Wind Chill: 61°   Ceiling: 1100
Heat Index: 61°   Visibility: 10mi
Dew Point: 56°   Wind: 8mph
Humidity: 83%   Direction: 240°WSW
Pressure: 30.11"   Gusts: NA
Location:  39.6195°N, 90.4337°W
Report Text: KIJX 241615Z AUTO 24007KT 10SM OVC011 16/13 A3011 RMK AO2 T01630134
Loading
Personal Weather Stations






























Interactive Weather Map
Tropical Storm Tracking
New forecast layout! Learn more

10-Day Weather Forecast

Advertisements
Track Severe Weather on mobile